sensor_id;sensor_type;location;lat;lon;timestamp;pressure;altitude;pressure_sealevel;temperature;humidity
73103;BME280;61294;65.988;29.172;2023-05-07T00:00:55;99503.13;;;-2.93;65.15
73103;BME280;61294;65.988;29.172;2023-05-07T00:07:46;99506.56;;;-2.92;66.38
73103;BME280;61294;65.988;29.172;2023-05-07T00:10:36;99510.75;;;-2.95;65.94
73103;BME280;61294;65.988;29.172;2023-05-07T00:13:47;99500.84;;;-3.02;65.98
73103;BME280;61294;65.988;29.172;2023-05-07T00:16:19;99500.84;;;-3.02;67.25
73103;BME280;61294;65.988;29.172;2023-05-07T00:19:17;99501.63;;;-3.03;67.88
73103;BME280;61294;65.988;29.172;2023-05-07T00:21:58;99471.16;;;-3.23;67.34
73103;BME280;61294;65.988;29.172;2023-05-07T00:27:57;99493.53;;;-3.22;66.92
73103;BME280;61294;65.988;29.172;2023-05-07T00:30:34;99496.13;;;-3.22;66.92
73103;BME280;61294;65.988;29.172;2023-05-07T00:33:45;99497.63;;;-3.26;67.20
73103;BME280;61294;65.988;29.172;2023-05-07T00:36:36;99502.78;;;-3.26;67.16
73103;BME280;61294;65.988;29.172;2023-05-07T00:39:47;99492.06;;;-3.32;67.44
73103;BME280;61294;65.988;29.172;2023-05-07T00:48:48;99491.88;;;-3.49;68.12
73103;BME280;61294;65.988;29.172;2023-05-07T00:54:42;99484.97;;;-3.63;69.21
73103;BME280;61294;65.988;29.172;2023-05-07T00:57:37;99490.00;;;-3.65;69.04
73103;BME280;61294;65.988;29.172;2023-05-07T01:00:28;99499.59;;;-3.62;69.51
73103;BME280;61294;65.988;29.172;2023-05-07T01:03:03;99474.44;;;-3.79;68.99
73103;BME280;61294;65.988;29.172;2023-05-07T01:05:48;99488.50;;;-3.74;69.18
73103;BME280;61294;65.988;29.172;2023-05-07T01:08:46;99494.34;;;-3.77;69.56
73103;BME280;61294;65.988;29.172;2023-05-07T01:14:49;99481.25;;;-4.07;70.27
73103;BME280;61294;65.988;29.172;2023-05-07T01:17:45;99502.16;;;-3.89;71.17
73103;BME280;61294;65.988;29.172;2023-05-07T01:20:26;99473.03;;;-4.01;70.87
73103;BME280;61294;65.988;29.172;2023-05-07T01:23:05;99485.50;;;-3.94;70.59
73103;BME280;61294;65.988;29.172;2023-05-07T01:26:04;99477.50;;;-3.99;70.96
73103;BME280;61294;65.988;29.172;2023-05-07T01:28:39;99478.09;;;-4.03;71.32
73103;BME280;61294;65.988;29.172;2023-05-07T01:31:20;99499.88;;;-3.97;71.14
73103;BME280;61294;65.988;29.172;2023-05-07T01:33:59;99492.22;;;-4.09;71.35
73103;BME280;61294;65.988;29.172;2023-05-07T01:36:51;99481.91;;;-4.23;71.66
73103;BME280;61294;65.988;29.172;2023-05-07T01:39:33;99477.34;;;-4.27;72.36
73103;BME280;61294;65.988;29.172;2023-05-07T01:42:05;99476.47;;;-4.27;72.61
73103;BME280;61294;65.988;29.172;2023-05-07T01:44:41;99493.59;;;-4.14;72.27
73103;BME280;61294;65.988;29.172;2023-05-07T01:47:13;99487.56;;;-4.15;71.76
73103;BME280;61294;65.988;29.172;2023-05-07T01:49:48;99456.03;;;-4.38;71.43
73103;BME280;61294;65.988;29.172;2023-05-07T01:52:27;99467.53;;;-4.32;71.74
73103;BME280;61294;65.988;29.172;2023-05-07T01:54:58;99481.06;;;-4.35;71.51
73103;BME280;61294;65.988;29.172;2023-05-07T01:57:48;99500.69;;;-4.24;72.58
73103;BME280;61294;65.988;29.172;2023-05-07T02:00:24;99495.63;;;-4.36;72.39
73103;BME280;61294;65.988;29.172;2023-05-07T02:03:05;99479.75;;;-4.42;72.68
73103;BME280;61294;65.988;29.172;2023-05-07T02:05:37;99478.75;;;-4.57;72.67
73103;BME280;61294;65.988;29.172;2023-05-07T02:08:08;99471.03;;;-4.57;72.77
73103;BME280;61294;65.988;29.172;2023-05-07T02:10:38;99482.69;;;-4.49;72.76
73103;BME280;61294;65.988;29.172;2023-05-07T02:13:22;99470.69;;;-4.62;72.64
73103;BME280;61294;65.988;29.172;2023-05-07T02:16:14;99485.88;;;-4.53;72.61
73103;BME280;61294;65.988;29.172;2023-05-07T02:18:54;99496.47;;;-4.48;72.87
73103;BME280;61294;65.988;29.172;2023-05-07T02:21:39;99479.72;;;-4.55;72.87
73103;BME280;61294;65.988;29.172;2023-05-07T02:24:14;99499.81;;;-4.49;73.30
73103;BME280;61294;65.988;29.172;2023-05-07T02:26:48;99487.13;;;-4.60;73.12
73103;BME280;61294;65.988;29.172;2023-05-07T02:29:31;99510.22;;;-4.48;73.74
73103;BME280;61294;65.988;29.172;2023-05-07T02:32:05;99483.16;;;-4.55;73.75
73103;BME280;61294;65.988;29.172;2023-05-07T02:34:34;99463.06;;;-4.60;73.24
73103;BME280;61294;65.988;29.172;2023-05-07T02:37:06;99463.72;;;-4.51;72.95
73103;BME280;61294;65.988;29.172;2023-05-07T02:39:35;99493.94;;;-4.35;72.70
73103;BME280;61294;65.988;29.172;2023-05-07T02:42:04;99486.69;;;-4.41;73.37
73103;BME280;61294;65.988;29.172;2023-05-07T02:44:30;99479.06;;;-4.39;73.67
73103;BME280;61294;65.988;29.172;2023-05-07T02:47:26;99472.16;;;-4.40;73.37
73103;BME280;61294;65.988;29.172;2023-05-07T02:49:56;99490.09;;;-4.28;73.51
73103;BME280;61294;65.988;29.172;2023-05-07T02:52:23;99491.56;;;-4.32;74.06
73103;BME280;61294;65.988;29.172;2023-05-07T02:54:55;99497.03;;;-4.27;74.93
73103;BME280;61294;65.988;29.172;2023-05-07T02:57:27;99494.78;;;-4.23;74.62
73103;BME280;61294;65.988;29.172;2023-05-07T03:00:42;99474.66;;;-4.28;74.59
73103;BME280;61294;65.988;29.172;2023-05-07T03:03:20;99494.50;;;-4.14;75.06
73103;BME280;61294;65.988;29.172;2023-05-07T03:06:39;99482.50;;;-4.13;74.72
73103;BME280;61294;65.988;29.172;2023-05-07T03:09:03;99482.50;;;-4.13;74.30
73103;BME280;61294;65.988;29.172;2023-05-07T03:18:27;99461.75;;;-4.03;72.75
73103;BME280;61294;65.988;29.172;2023-05-07T03:21:14;99468.50;;;-3.92;72.44
73103;BME280;61294;65.988;29.172;2023-05-07T03:24:11;99478.19;;;-3.88;72.40
73103;BME280;61294;65.988;29.172;2023-05-07T03:27:03;99470.69;;;-3.85;72.05
73103;BME280;61294;65.988;29.172;2023-05-07T03:29:55;99482.25;;;-3.78;71.81
73103;BME280;61294;65.988;29.172;2023-05-07T03:32:59;99492.50;;;-3.66;71.97
73103;BME280;61294;65.988;29.172;2023-05-07T03:36:03;99488.69;;;-3.58;71.18
73103;BME280;61294;65.988;29.172;2023-05-07T03:38:45;99487.81;;;-3.58;71.04
73103;BME280;61294;65.988;29.172;2023-05-07T03:42:09;99486.94;;;-3.45;71.38
73103;BME280;61294;65.988;29.172;2023-05-07T03:45:16;99485.66;;;-3.39;71.58
73103;BME280;61294;65.988;29.172;2023-05-07T03:52:01;99475.25;;;-3.40;70.37
73103;BME280;61294;65.988;29.172;2023-05-07T04:16:43;99475.22;;;-2.57;68.41
73103;BME280;61294;65.988;29.172;2023-05-07T04:23:32;99488.78;;;-2.31;67.90
73103;BME280;61294;65.988;29.172;2023-05-07T04:26:19;99485.78;;;-2.24;67.80
73103;BME280;61294;65.988;29.172;2023-05-07T04:29:16;99479.72;;;-2.10;67.08
73103;BME280;61294;65.988;29.172;2023-05-07T04:32:26;99487.25;;;-1.99;67.82
73103;BME280;61294;65.988;29.172;2023-05-07T04:35:36;99478.34;;;-1.89;67.32
73103;BME280;61294;65.988;29.172;2023-05-07T04:38:23;99470.47;;;-1.76;66.79
73103;BME280;61294;65.988;29.172;2023-05-07T04:41:09;99472.69;;;-1.52;66.04
73103;BME280;61294;65.988;29.172;2023-05-07T04:46:37;99465.84;;;-1.35;64.10
73103;BME280;61294;65.988;29.172;2023-05-07T04:50:01;99473.75;;;-1.17;64.17
73103;BME280;61294;65.988;29.172;2023-05-07T04:53:06;99477.09;;;-0.87;62.58
73103;BME280;61294;65.988;29.172;2023-05-07T04:59:16;99478.78;;;-0.73;62.11
73103;BME280;61294;65.988;29.172;2023-05-07T05:01:48;99476.25;;;-0.71;61.80
73103;BME280;61294;65.988;29.172;2023-05-07T05:04:49;99480.78;;;-0.50;61.10
73103;BME280;61294;65.988;29.172;2023-05-07T05:08:15;99482.47;;;-0.35;59.73
73103;BME280;61294;65.988;29.172;2023-05-07T05:11:15;99479.72;;;-0.21;59.29
73103;BME280;61294;65.988;29.172;2023-05-07T05:13:55;99471.44;;;-0.14;58.64
73103;BME280;61294;65.988;29.172;2023-05-07T05:16:41;99480.97;;;-0.13;58.80
73103;BME280;61294;65.988;29.172;2023-05-07T05:19:07;99474.28;;;-0.09;58.58
73103;BME280;61294;65.988;29.172;2023-05-07T05:21:33;99459.38;;;-0.13;58.20
73103;BME280;61294;65.988;29.172;2023-05-07T05:23:59;99484.44;;;0.04;57.47
73103;BME280;61294;65.988;29.172;2023-05-07T05:26:25;99485.84;;;0.15;56.85
73103;BME280;61294;65.988;29.172;2023-05-07T05:28:51;99478.25;;;0.37;56.51
73103;BME280;61294;65.988;29.172;2023-05-07T05:31:17;99473.22;;;0.40;58.18
73103;BME280;61294;65.988;29.172;2023-05-07T05:33:43;99464.34;;;0.34;59.04
73103;BME280;61294;65.988;29.172;2023-05-07T05:36:09;99480.13;;;0.39;57.49
73103;BME280;61294;65.988;29.172;2023-05-07T05:38:36;99467.09;;;0.38;57.20
73103;BME280;61294;65.988;29.172;2023-05-07T05:41:02;99476.06;;;0.80;55.50
73103;BME280;61294;65.988;29.172;2023-05-07T05:43:28;99452.25;;;0.71;56.01
73103;BME280;61294;65.988;29.172;2023-05-07T05:45:56;99469.97;;;0.62;57.29
73103;BME280;61294;65.988;29.172;2023-05-07T05:48:22;99475.53;;;0.69;56.29
73103;BME280;61294;65.988;29.172;2023-05-07T05:50:50;99456.03;;;0.96;52.37
73103;BME280;61294;65.988;29.172;2023-05-07T05:53:16;99464.44;;;1.29;50.64
73103;BME280;61294;65.988;29.172;2023-05-07T05:55:42;99454.22;;;1.13;50.98
73103;BME280;61294;65.988;29.172;2023-05-07T05:58:09;99468.09;;;1.33;50.92
73103;BME280;61294;65.988;29.172;2023-05-07T06:00:35;99470.38;;;1.27;51.33
73103;BME280;61294;65.988;29.172;2023-05-07T06:03:01;99459.69;;;1.38;51.07
73103;BME280;61294;65.988;29.172;2023-05-07T06:05:27;99461.06;;;1.50;50.38
73103;BME280;61294;65.988;29.172;2023-05-07T06:08:03;99459.41;;;1.52;47.76
73103;BME280;61294;65.988;29.172;2023-05-07T06:10:29;99458.16;;;1.63;48.32
73103;BME280;61294;65.988;29.172;2023-05-07T06:13:05;99456.00;;;1.72;47.49
73103;BME280;61294;65.988;29.172;2023-05-07T06:16:00;99461.09;;;1.71;45.91
73103;BME280;61294;65.988;29.172;2023-05-07T06:19:11;99457.59;;;1.90;45.49
73103;BME280;61294;65.988;29.172;2023-05-07T06:22:32;99453.34;;;1.92;44.54
73103;BME280;61294;65.988;29.172;2023-05-07T06:24:46;99460.09;;;2.29;42.79
73103;BME280;61294;65.988;29.172;2023-05-07T07:01:19;99465.47;;;2.55;40.04
73103;BME280;61294;65.988;29.172;2023-05-07T07:03:45;99456.59;;;2.50;40.36
73103;BME280;61294;65.988;29.172;2023-05-07T07:06:11;99452.50;;;2.56;40.01
73103;BME280;61294;65.988;29.172;2023-05-07T07:08:40;99455.34;;;2.84;39.64
73103;BME280;61294;65.988;29.172;2023-05-07T07:11:10;99445.06;;;2.87;40.25
73103;BME280;61294;65.988;29.172;2023-05-07T07:13:51;99461.31;;;2.81;39.55
73103;BME280;61294;65.988;29.172;2023-05-07T07:16:20;99450.13;;;2.61;40.55
73103;BME280;61294;65.988;29.172;2023-05-07T07:19:07;99451.28;;;2.69;40.32
73103;BME280;61294;65.988;29.172;2023-05-07T07:21:33;99445.53;;;2.76;40.70
73103;BME280;61294;65.988;29.172;2023-05-07T07:23:59;99437.59;;;2.96;39.18
73103;BME280;61294;65.988;29.172;2023-05-07T07:26:26;99438.53;;;2.98;39.50
73103;BME280;61294;65.988;29.172;2023-05-07T07:28:52;99449.88;;;3.00;40.22
73103;BME280;61294;65.988;29.172;2023-05-07T07:31:18;99447.66;;;2.87;40.17
73103;BME280;61294;65.988;29.172;2023-05-07T07:33:44;99424.34;;;2.90;39.95
73103;BME280;61294;65.988;29.172;2023-05-07T07:36:10;99419.72;;;3.05;39.25
73103;BME280;61294;65.988;29.172;2023-05-07T07:38:36;99437.47;;;3.16;39.86
73103;BME280;61294;65.988;29.172;2023-05-07T07:41:02;99434.63;;;3.09;40.00
73103;BME280;61294;65.988;29.172;2023-05-07T07:43:27;99427.88;;;3.15;39.83
73103;BME280;61294;65.988;29.172;2023-05-07T07:45:53;99434.66;;;3.34;40.37
73103;BME280;61294;65.988;29.172;2023-05-07T07:48:19;99425.69;;;3.50;38.45
73103;BME280;61294;65.988;29.172;2023-05-07T07:50:45;99406.00;;;3.58;36.89
73103;BME280;61294;65.988;29.172;2023-05-07T07:53:13;99401.13;;;3.43;38.15
73103;BME280;61294;65.988;29.172;2023-05-07T07:55:39;99434.25;;;3.71;37.80
73103;BME280;61294;65.988;29.172;2023-05-07T07:58:05;99419.78;;;3.79;36.83
73103;BME280;61294;65.988;29.172;2023-05-07T08:00:31;99406.38;;;3.69;37.08
73103;BME280;61294;65.988;29.172;2023-05-07T08:02:57;99434.31;;;3.98;37.14
73103;BME280;61294;65.988;29.172;2023-05-07T08:05:23;99426.59;;;4.02;36.81
73103;BME280;61294;65.988;29.172;2023-05-07T08:07:49;99409.75;;;3.92;36.62
73103;BME280;61294;65.988;29.172;2023-05-07T08:10:17;99402.75;;;3.89;36.85
73103;BME280;61294;65.988;29.172;2023-05-07T08:12:50;99431.81;;;4.27;36.67
73103;BME280;61294;65.988;29.172;2023-05-07T08:15:16;99396.09;;;4.25;36.55
73103;BME280;61294;65.988;29.172;2023-05-07T08:17:42;99427.72;;;4.36;36.50
73103;BME280;61294;65.988;29.172;2023-05-07T08:20:09;99430.00;;;4.52;35.90
73103;BME280;61294;65.988;29.172;2023-05-07T08:22:35;99429.84;;;4.75;34.55
73103;BME280;61294;65.988;29.172;2023-05-07T08:25:02;99403.16;;;4.83;35.48
73103;BME280;61294;65.988;29.172;2023-05-07T08:27:28;99421.72;;;4.94;34.80
73103;BME280;61294;65.988;29.172;2023-05-07T08:29:54;99400.78;;;4.93;33.30
73103;BME280;61294;65.988;29.172;2023-05-07T08:32:20;99426.94;;;5.23;33.72
73103;BME280;61294;65.988;29.172;2023-05-07T08:34:47;99403.50;;;4.96;34.63
73103;BME280;61294;65.988;29.172;2023-05-07T08:37:13;99379.00;;;4.91;34.78
73103;BME280;61294;65.988;29.172;2023-05-07T08:39:39;99416.63;;;5.28;34.96
73103;BME280;61294;65.988;29.172;2023-05-07T08:42:04;99386.78;;;5.51;34.49
73103;BME280;61294;65.988;29.172;2023-05-07T08:44:35;99406.72;;;5.80;33.91
73103;BME280;61294;65.988;29.172;2023-05-07T08:47:01;99423.97;;;6.05;33.95
73103;BME280;61294;65.988;29.172;2023-05-07T08:49:28;99409.34;;;6.12;32.70
73103;BME280;61294;65.988;29.172;2023-05-07T08:51:54;99411.91;;;6.10;31.71
73103;BME280;61294;65.988;29.172;2023-05-07T08:54:21;99406.41;;;6.34;32.10
73103;BME280;61294;65.988;29.172;2023-05-07T08:56:48;99384.31;;;6.60;33.16
73103;BME280;61294;65.988;29.172;2023-05-07T08:59:14;99398.91;;;6.88;32.49
73103;BME280;61294;65.988;29.172;2023-05-07T09:01:39;99401.03;;;7.04;31.71
73103;BME280;61294;65.988;29.172;2023-05-07T09:04:05;99406.59;;;6.80;32.79
73103;BME280;61294;65.988;29.172;2023-05-07T09:06:33;99403.00;;;7.16;33.12
73103;BME280;61294;65.988;29.172;2023-05-07T09:09:00;99406.63;;;7.21;31.32
73103;BME280;61294;65.988;29.172;2023-05-07T09:11:26;99393.84;;;7.37;31.40
73103;BME280;61294;65.988;29.172;2023-05-07T09:13:56;99395.47;;;7.77;31.21
73103;BME280;61294;65.988;29.172;2023-05-07T09:16:23;99393.44;;;8.11;29.78
73103;BME280;61294;65.988;29.172;2023-05-07T09:18:53;99400.25;;;8.52;30.09
73103;BME280;61294;65.988;29.172;2023-05-07T09:21:20;99404.84;;;9.30;30.20
73103;BME280;61294;65.988;29.172;2023-05-07T09:23:51;99376.41;;;9.73;29.46
73103;BME280;61294;65.988;29.172;2023-05-07T09:26:18;99392.94;;;10.49;29.36
73103;BME280;61294;65.988;29.172;2023-05-07T09:28:46;99390.53;;;13.98;25.46
73103;BME280;61294;65.988;29.172;2023-05-07T09:31:12;99381.88;;;20.02;20.45
73103;BME280;61294;65.988;29.172;2023-05-07T09:33:39;99361.16;;;23.55;15.61
73103;BME280;61294;65.988;29.172;2023-05-07T09:36:06;99376.78;;;24.94;16.15
73103;BME280;61294;65.988;29.172;2023-05-07T09:38:34;99366.72;;;25.65;15.14
73103;BME280;61294;65.988;29.172;2023-05-07T09:41:07;99367.03;;;28.02;14.53
73103;BME280;61294;65.988;29.172;2023-05-07T09:43:33;99368.16;;;26.82;12.79
73103;BME280;61294;65.988;29.172;2023-05-07T09:46:06;99359.22;;;27.11;13.81
73103;BME280;61294;65.988;29.172;2023-05-07T09:48:36;99368.03;;;27.43;12.28
73103;BME280;61294;65.988;29.172;2023-05-07T09:51:05;99366.38;;;27.84;13.03
73103;BME280;61294;65.988;29.172;2023-05-07T09:53:33;99346.88;;;29.14;12.21
73103;BME280;61294;65.988;29.172;2023-05-07T09:55:59;99349.66;;;29.89;11.95
73103;BME280;61294;65.988;29.172;2023-05-07T09:58:26;99355.53;;;29.83;10.83
73103;BME280;61294;65.988;29.172;2023-05-07T10:00:52;99348.91;;;28.44;11.95
73103;BME280;61294;65.988;29.172;2023-05-07T10:03:19;99338.75;;;26.92;11.73
73103;BME280;61294;65.988;29.172;2023-05-07T10:05:46;99345.63;;;28.66;11.73
73103;BME280;61294;65.988;29.172;2023-05-07T10:08:13;99351.69;;;29.99;12.02
73103;BME280;61294;65.988;29.172;2023-05-07T10:10:40;99347.38;;;31.04;11.43
73103;BME280;61294;65.988;29.172;2023-05-07T10:13:06;99328.53;;;30.66;11.85
73103;BME280;61294;65.988;29.172;2023-05-07T10:15:36;99340.81;;;31.18;10.43
73103;BME280;61294;65.988;29.172;2023-05-07T10:18:03;99310.53;;;31.34;10.31
73103;BME280;61294;65.988;29.172;2023-05-07T10:20:31;99326.94;;;30.39;10.11
73103;BME280;61294;65.988;29.172;2023-05-07T10:22:58;99335.81;;;29.04;10.75
73103;BME280;61294;65.988;29.172;2023-05-07T10:25:31;99329.09;;;30.22;10.62
73103;BME280;61294;65.988;29.172;2023-05-07T10:28:04;99323.28;;;31.67;11.03
73103;BME280;61294;65.988;29.172;2023-05-07T10:30:48;99333.59;;;29.86;11.66
73103;BME280;61294;65.988;29.172;2023-05-07T10:33:23;99312.53;;;28.21;12.32
73103;BME280;61294;65.988;29.172;2023-05-07T10:35:51;99319.66;;;28.09;12.64
73103;BME280;61294;65.988;29.172;2023-05-07T10:38:21;99320.91;;;28.71;11.82
73103;BME280;61294;65.988;29.172;2023-05-07T10:40:47;99324.59;;;29.60;11.34
73103;BME280;61294;65.988;29.172;2023-05-07T10:43:12;99320.59;;;30.51;11.42
73103;BME280;61294;65.988;29.172;2023-05-07T10:45:38;99315.47;;;27.04;12.05
73103;BME280;61294;65.988;29.172;2023-05-07T10:48:09;99324.78;;;26.69;12.81
73103;BME280;61294;65.988;29.172;2023-05-07T10:50:36;99316.94;;;28.89;12.56
73103;BME280;61294;65.988;29.172;2023-05-07T10:55:46;99318.22;;;29.98;11.77
73103;BME280;61294;65.988;29.172;2023-05-07T11:00:50;99304.75;;;30.21;11.78
73103;BME280;61294;65.988;29.172;2023-05-07T11:03:16;99303.69;;;31.74;10.01
73103;BME280;61294;65.988;29.172;2023-05-07T11:05:42;99313.34;;;31.78;10.38
73103;BME280;61294;65.988;29.172;2023-05-07T11:08:09;99315.75;;;30.43;11.39
73103;BME280;61294;65.988;29.172;2023-05-07T11:10:54;99313.13;;;30.42;10.34
73103;BME280;61294;65.988;29.172;2023-05-07T11:16:24;99299.25;;;29.72;11.20
73103;BME280;61294;65.988;29.172;2023-05-07T11:18:52;99313.53;;;29.63;11.58
73103;BME280;61294;65.988;29.172;2023-05-07T11:21:36;99313.97;;;28.80;11.03
73103;BME280;61294;65.988;29.172;2023-05-07T11:24:03;99300.38;;;27.72;11.99
73103;BME280;61294;65.988;29.172;2023-05-07T11:26:31;99281.25;;;26.74;12.44
73103;BME280;61294;65.988;29.172;2023-05-07T11:28:57;99284.38;;;26.82;13.09
73103;BME280;61294;65.988;29.172;2023-05-07T11:31:27;99285.63;;;26.91;12.95
73103;BME280;61294;65.988;29.172;2023-05-07T11:33:54;99303.91;;;25.79;13.92
73103;BME280;61294;65.988;29.172;2023-05-07T11:36:22;99296.34;;;24.87;14.11
73103;BME280;61294;65.988;29.172;2023-05-07T11:38:48;99310.91;;;25.00;14.38
73103;BME280;61294;65.988;29.172;2023-05-07T11:41:15;99312.72;;;26.45;13.47
73103;BME280;61294;65.988;29.172;2023-05-07T11:43:55;99284.91;;;24.99;13.79
73103;BME280;61294;65.988;29.172;2023-05-07T11:46:21;99302.31;;;25.09;14.46
73103;BME280;61294;65.988;29.172;2023-05-07T11:48:47;99303.47;;;25.55;14.07
73103;BME280;61294;65.988;29.172;2023-05-07T11:51:13;99293.38;;;26.67;13.86
73103;BME280;61294;65.988;29.172;2023-05-07T11:53:45;99288.78;;;26.08;13.53
73103;BME280;61294;65.988;29.172;2023-05-07T11:56:13;99281.25;;;25.49;14.24
73103;BME280;61294;65.988;29.172;2023-05-07T11:58:40;99278.00;;;26.53;13.47
73103;BME280;61294;65.988;29.172;2023-05-07T12:01:09;99287.06;;;24.40;13.86
73103;BME280;61294;65.988;29.172;2023-05-07T12:03:40;99279.66;;;24.62;14.77
73103;BME280;61294;65.988;29.172;2023-05-07T12:06:14;99271.63;;;25.12;14.32
73103;BME280;61294;65.988;29.172;2023-05-07T12:08:41;99276.75;;;26.14;13.85
73103;BME280;61294;65.988;29.172;2023-05-07T12:11:09;99267.00;;;27.15;13.63
73103;BME280;61294;65.988;29.172;2023-05-07T12:13:37;99274.19;;;26.27;13.44
73103;BME280;61294;65.988;29.172;2023-05-07T12:16:04;99272.78;;;26.95;12.96
73103;BME280;61294;65.988;29.172;2023-05-07T12:18:31;99270.19;;;27.78;12.46
73103;BME280;61294;65.988;29.172;2023-05-07T12:20:57;99279.56;;;27.45;13.44
73103;BME280;61294;65.988;29.172;2023-05-07T12:23:24;99272.50;;;27.43;12.66
73103;BME280;61294;65.988;29.172;2023-05-07T12:25:50;99285.03;;;29.06;12.53
73103;BME280;61294;65.988;29.172;2023-05-07T12:28:17;99283.66;;;28.60;12.25
73103;BME280;61294;65.988;29.172;2023-05-07T12:30:45;99263.63;;;25.76;12.04
73103;BME280;61294;65.988;29.172;2023-05-07T12:33:19;99264.38;;;25.78;13.91
73103;BME280;61294;65.988;29.172;2023-05-07T12:35:48;99281.97;;;25.20;14.17
73103;BME280;61294;65.988;29.172;2023-05-07T12:38:16;99244.25;;;26.15;13.91
73103;BME280;61294;65.988;29.172;2023-05-07T12:40:44;99270.63;;;27.58;13.08
73103;BME280;61294;65.988;29.172;2023-05-07T12:43:27;99280.31;;;28.44;12.69
73103;BME280;61294;65.988;29.172;2023-05-07T12:45:55;99270.41;;;26.60;12.60
73103;BME280;61294;65.988;29.172;2023-05-07T12:48:21;99275.13;;;27.15;13.21
73103;BME280;61294;65.988;29.172;2023-05-07T12:50:54;99267.59;;;27.77;12.16
73103;BME280;61294;65.988;29.172;2023-05-07T12:53:22;99269.97;;;28.76;12.41
73103;BME280;61294;65.988;29.172;2023-05-07T12:55:49;99258.22;;;24.59;13.91
73103;BME280;61294;65.988;29.172;2023-05-07T12:58:35;99254.22;;;27.32;12.93
73103;BME280;61294;65.988;29.172;2023-05-07T13:01:05;99273.97;;;28.70;13.00
73103;BME280;61294;65.988;29.172;2023-05-07T13:03:35;99261.00;;;29.51;11.14
73103;BME280;61294;65.988;29.172;2023-05-07T13:06:10;99249.84;;;29.17;12.04
73103;BME280;61294;65.988;29.172;2023-05-07T13:08:39;99267.44;;;28.99;12.23
73103;BME280;61294;65.988;29.172;2023-05-07T13:11:07;99241.53;;;27.88;12.46
73103;BME280;61294;65.988;29.172;2023-05-07T13:13:34;99258.06;;;25.63;13.35
73103;BME280;61294;65.988;29.172;2023-05-07T13:16:01;99259.22;;;28.21;13.19
73103;BME280;61294;65.988;29.172;2023-05-07T13:18:29;99266.06;;;28.27;13.12
73103;BME280;61294;65.988;29.172;2023-05-07T13:20:55;99260.34;;;26.47;12.10
73103;BME280;61294;65.988;29.172;2023-05-07T13:23:21;99241.16;;;27.53;13.20
73103;BME280;61294;65.988;29.172;2023-05-07T13:25:47;99250.50;;;26.91;11.72
73103;BME280;61294;65.988;29.172;2023-05-07T13:28:13;99257.03;;;27.30;12.79
73103;BME280;61294;65.988;29.172;2023-05-07T13:30:39;99220.66;;;26.93;13.04
73103;BME280;61294;65.988;29.172;2023-05-07T13:33:06;99250.66;;;25.82;13.44
73103;BME280;61294;65.988;29.172;2023-05-07T13:35:32;99247.09;;;27.31;12.79
73103;BME280;61294;65.988;29.172;2023-05-07T13:37:58;99259.28;;;25.24;13.79
73103;BME280;61294;65.988;29.172;2023-05-07T13:40:24;99236.94;;;24.55;14.24
73103;BME280;61294;65.988;29.172;2023-05-07T13:42:50;99250.56;;;23.43;13.96
73103;BME280;61294;65.988;29.172;2023-05-07T13:45:20;99245.53;;;21.93;15.75
73103;BME280;61294;65.988;29.172;2023-05-07T13:47:46;99253.66;;;20.51;17.07
73103;BME280;61294;65.988;29.172;2023-05-07T13:50:12;99252.56;;;18.90;18.08
73103;BME280;61294;65.988;29.172;2023-05-07T13:52:43;99255.84;;;17.99;19.77
73103;BME280;61294;65.988;29.172;2023-05-07T13:55:11;99235.66;;;17.90;19.78
73103;BME280;61294;65.988;29.172;2023-05-07T13:57:37;99215.09;;;17.20;20.83
73103;BME280;61294;65.988;29.172;2023-05-07T14:00:03;99236.78;;;16.56;20.37
73103;BME280;61294;65.988;29.172;2023-05-07T14:02:31;99229.72;;;16.55;21.03
73103;BME280;61294;65.988;29.172;2023-05-07T14:04:56;99255.19;;;15.02;20.62
73103;BME280;61294;65.988;29.172;2023-05-07T14:07:22;99230.56;;;14.94;22.10
73103;BME280;61294;65.988;29.172;2023-05-07T14:09:48;99244.13;;;15.36;21.85
73103;BME280;61294;65.988;29.172;2023-05-07T14:12:14;99248.34;;;14.86;22.45
73103;BME280;61294;65.988;29.172;2023-05-07T14:14:39;99257.38;;;15.36;22.35
73103;BME280;61294;65.988;29.172;2023-05-07T14:17:05;99224.50;;;15.48;21.81
73103;BME280;61294;65.988;29.172;2023-05-07T14:19:31;99216.41;;;14.93;22.86
73103;BME280;61294;65.988;29.172;2023-05-07T14:21:57;99242.56;;;15.23;22.50
73103;BME280;61294;65.988;29.172;2023-05-07T14:24:23;99231.53;;;14.04;22.07
73103;BME280;61294;65.988;29.172;2023-05-07T14:26:49;99222.84;;;13.88;23.24
73103;BME280;61294;65.988;29.172;2023-05-07T14:29:15;99222.44;;;14.30;22.95
73103;BME280;61294;65.988;29.172;2023-05-07T14:31:44;99232.59;;;14.72;23.86
73103;BME280;61294;65.988;29.172;2023-05-07T14:34:11;99218.44;;;14.74;23.61
73103;BME280;61294;65.988;29.172;2023-05-07T14:36:36;99234.50;;;13.67;23.59
73103;BME280;61294;65.988;29.172;2023-05-07T14:39:03;99215.69;;;14.01;23.87
73103;BME280;61294;65.988;29.172;2023-05-07T14:41:29;99215.31;;;14.37;24.68
73103;BME280;61294;65.988;29.172;2023-05-07T14:43:56;99212.69;;;14.35;24.17
73103;BME280;61294;65.988;29.172;2023-05-07T14:46:24;99207.75;;;13.98;25.43
73103;BME280;61294;65.988;29.172;2023-05-07T14:48:50;99209.94;;;13.45;24.17
73103;BME280;61294;65.988;29.172;2023-05-07T14:51:15;99206.28;;;13.63;23.90
73103;BME280;61294;65.988;29.172;2023-05-07T14:53:41;99227.97;;;14.04;24.77
73103;BME280;61294;65.988;29.172;2023-05-07T14:56:07;99233.81;;;13.40;24.88
73103;BME280;61294;65.988;29.172;2023-05-07T14:58:36;99220.91;;;12.80;25.16
73103;BME280;61294;65.988;29.172;2023-05-07T15:01:04;99226.00;;;13.14;25.44
73103;BME280;61294;65.988;29.172;2023-05-07T15:03:30;99221.72;;;12.93;24.97
73103;BME280;61294;65.988;29.172;2023-05-07T15:05:56;99224.41;;;12.82;25.92
73103;BME280;61294;65.988;29.172;2023-05-07T15:08:22;99187.22;;;13.11;26.16
73103;BME280;61294;65.988;29.172;2023-05-07T15:10:48;99202.47;;;12.55;25.16